KAFF/AFF METAR and TAF weather

Enter ICAO airport designator
Station Type Date Time Source
KAFF METAR 2018/04/27 00:58 UTC NOAA

KAFF 270058Z AUTO 01011KT 10SM CLR 11/M05 A3026 RMK AO2 SLP221 T01081048


Station Type Date Time Source
KAFF Decoded METAR 2018/04/27 00:58 UTC NOAA

Air Force Academy, CO, United States (KAFF) 38-58N 104-49W 1999M
Apr 26, 2018 - 08:58 PM EDT / 2018.04.27 0058 UTC
Wind: from the N (010 degrees) at 13 MPH (11 KT):0
Visibility: 10 mile(s):0
Sky conditions: clear
Temperature: 51.4 F (10.8 C)
Dew Point: 23.4 F (-4.8 C)
Relative Humidity: 33%
Pressure (altimeter): 30.26 in. Hg (1024 hPa)
ob: KAFF 270058Z AUTO 01011KT 10SM CLR 11/M05 A3026 RMK AO2 SLP221 T01081048
cycle: 1

Station Type Date Time Source
KAFF TAF 2018/04/26 22:39 UTC NOAA

TAF TAF
AMD KAFF 262237Z 2622/2801 34012G18KT 9999 FEW050 520009 QNH3024INS
TEMPO 2622/2624 34015G28KT
BECMG 2700/2701 36012KT 9999 FEW080 SCT120 QNH3026INS
BECMG 2703/2704 34009KT 9999 FEW180 520203 QNH3021INS
BECMG 2716/2717 17012KT 9999 FEW150 QNH3015INS TX15/2623Z TN02/2712Z LAST NO
AMDS AFT 2700 NEXT 2711


Example: see airport list